Time;durP1;ratioP1;P1;durP2;ratioP2;P2;SDS_P1;SDS_P2;PMS_P1;PMS_P2;Temp;Humidity;BMP_temperature;BMP_pressure;BME280_temperature;BME280_humidity;BME280_pressure;Samples;Min_cycle;Max_cycle;Signal;HPM_P1;HPM_P2
2021/04/14 00:01:02;;;;;;;19.05;2.67;;;32.00;13.70;;;;;;5092388;28;20758;-67
2021/04/14 00:03:32;;;;;;;20.10;2.40;;;31.80;13.30;;;;;;5093610;28;20201;-71
2021/04/14 00:06:00;;;;;;;33.10;3.38;;;31.90;14.00;;;;;;5092399;28;20163;-67
2021/04/14 00:08:30;;;;;;;11.23;2.63;;;32.10;14.20;;;;;;5097192;28;20076;-67
2021/04/14 00:10:57;;;;;;;21.05;2.40;;;31.80;13.60;;;;;;5092867;28;20118;-65
2021/04/14 00:13:30;;;;;;;17.42;2.47;;;31.90;14.10;;;;;;5095399;28;20568;-65
2021/04/14 00:15:58;;;;;;;11.38;2.38;;;31.90;13.60;;;;;;5076036;28;20069;-65
2021/04/14 00:18:26;;;;;;;12.90;2.60;;;31.80;13.80;;;;;;5098899;28;20077;-65
2021/04/14 00:20:53;;;;;;;15.13;3.25;;;31.70;14.00;;;;;;5095609;28;20134;-65
2021/04/14 00:23:22;;;;;;;20.48;2.65;;;31.50;13.90;;;;;;5094841;28;20150;-66
2021/04/14 00:25:51;;;;;;;22.27;2.90;;;31.40;14.00;;;;;;5091504;28;20066;-63
2021/04/14 00:28:20;;;;;;;16.13;3.00;;;31.30;13.80;;;;;;5100139;28;20068;-66
2021/04/14 00:30:47;;;;;;;16.63;2.53;;;31.10;13.90;;;;;;5093694;28;20103;-65
2021/04/14 00:33:14;;;;;;;30.05;3.30;;;31.00;13.70;;;;;;5095184;28;20092;-66
2021/04/14 00:35:40;;;;;;;39.03;3.50;;;30.90;14.60;;;;;;5091386;28;20081;-64
2021/04/14 00:38:08;;;;;;;20.75;2.78;;;30.80;14.80;;;;;;5089957;28;20115;-65
2021/04/14 00:40:37;;;;;;;32.60;3.70;;;30.50;14.80;;;;;;5102760;28;20099;-64
2021/04/14 00:43:11;;;;;;;15.90;2.80;;;30.50;15.40;;;;;;5095262;28;20092;-65
2021/04/14 00:45:38;;;;;;;12.05;2.47;;;30.40;15.40;;;;;;5093663;28;20077;-65
2021/04/14 00:48:06;;;;;;;14.80;2.40;;;30.40;15.90;;;;;;5080626;28;20072;-64
2021/04/14 00:50:33;;;;;;;21.55;2.95;;;30.20;15.90;;;;;;5101383;28;20080;-64
2021/04/14 00:52:59;;;;;;;13.95;2.42;;;30.10;16.30;;;;;;5094579;28;20072;-65
2021/04/14 00:55:28;;;;;;;12.07;2.38;;;29.90;16.40;;;;;;5095339;28;20385;-64
2021/04/14 00:57:55;;;;;;;15.55;3.22;;;29.60;16.50;;;;;;5092180;28;20424;-65
2021/04/14 01:00:35;;;;;;;21.60;2.78;;;29.50;16.90;;;;;;5093102;28;20564;-65
2021/04/14 01:03:03;;;;;;;27.17;3.50;;;29.40;16.30;;;;;;5096611;28;20088;-65
2021/04/14 01:05:34;;;;;;;27.38;3.55;;;29.00;16.30;;;;;;5098833;28;20071;-65
2021/04/14 01:08:00;;;;;;;17.08;3.08;;;29.00;16.40;;;;;;5090704;28;20080;-66
2021/04/14 01:10:27;;;;;;;18.58;2.67;;;28.90;16.60;;;;;;5097880;28;20191;-65
2021/04/14 01:12:54;;;;;;;19.33;2.72;;;28.90;16.90;;;;;;5091481;28;20630;-65
2021/04/14 01:15:27;;;;;;;11.70;2.40;;;28.80;17.00;;;;;;5095871;28;20086;-65
2021/04/14 01:17:54;;;;;;;9.25;2.58;;;28.70;17.30;;;;;;5096182;28;20094;-65
2021/04/14 01:20:20;;;;;;;13.25;3.05;;;28.60;17.70;;;;;;5079608;28;20436;-65
2021/04/14 01:22:47;;;;;;;9.82;2.65;;;28.60;18.00;;;;;;5090121;28;20124;-64
2021/04/14 01:25:22;;;;;;;29.55;3.40;;;28.50;17.50;;;;;;5096668;28;20173;-64
2021/04/14 01:27:49;;;;;;;18.48;2.58;;;28.50;17.90;;;;;;5092208;28;20071;-63
2021/04/14 01:30:28;;;;;;;13.20;2.60;;;28.40;18.40;;;;;;5092085;28;20068;-64
2021/04/14 01:32:56;;;;;;;11.20;2.67;;;28.30;18.80;;;;;;5092485;28;20079;-65
2021/04/14 01:35:26;;;;;;;17.10;3.10;;;28.30;19.00;;;;;;5076175;28;20076;-65
2021/04/14 01:37:52;;;;;;;14.68;3.42;;;28.30;19.30;;;;;;5098343;28;20076;-64
2021/04/14 01:40:21;;;;;;;10.63;3.05;;;28.20;19.50;;;;;;5098328;28;20064;-65
2021/04/14 01:42:48;;;;;;;19.55;3.10;;;28.10;19.70;;;;;;5080430;28;20104;-67
2021/04/14 01:45:18;;;;;;;12.82;2.85;;;28.00;20.80;;;;;;5097458;28;20169;-67
2021/04/14 01:47:44;;;;;;;9.80;2.70;;;27.90;21.50;;;;;;5096582;28;20068;-66
2021/04/14 01:50:11;;;;;;;13.85;3.08;;;27.80;21.80;;;;;;5095696;28;20600;-67
2021/04/14 01:52:37;;;;;;;13.52;3.03;;;27.60;22.10;;;;;;5096410;28;20159;-66
2021/04/14 01:55:06;;;;;;;10.90;2.72;;;27.40;22.40;;;;;;5099525;28;20069;-65
2021/04/14 01:57:32;;;;;;;14.13;3.10;;;27.30;22.50;;;;;;5074469;28;20080;-65
2021/04/14 01:59:59;;;;;;;12.52;2.78;;;27.20;22.60;;;;;;5098668;28;20458;-65
2021/04/14 02:02:25;;;;;;;19.73;3.25;;;27.10;22.90;;;;;;5092814;28;20175;-66
2021/04/14 02:04:52;;;;;;;17.02;2.97;;;26.90;23.70;;;;;;5094175;28;20080;-65
2021/04/14 02:07:19;;;;;;;15.85;3.00;;;26.70;22.90;;;;;;5097975;28;20076;-66
2021/04/14 02:09:45;;;;;;;11.63;2.53;;;26.70;23.30;;;;;;5094363;28;20081;-66
2021/04/14 02:12:12;;;;;;;16.33;2.90;;;26.60;23.10;;;;;;5082985;28;20131;-66
2021/04/14 02:14:38;;;;;;;14.40;2.90;;;26.50;23.20;;;;;;5100119;28;20069;-65
2021/04/14 02:17:05;;;;;;;13.80;3.10;;;26.40;23.80;;;;;;5102302;28;20131;-67
2021/04/14 02:19:32;;;;;;;12.63;2.75;;;26.30;23.70;;;;;;5097025;28;20117;-66
2021/04/14 02:21:58;;;;;;;16.27;2.85;;;26.20;24.00;;;;;;5100980;28;20162;-66
2021/04/14 02:24:25;;;;;;;16.38;3.13;;;26.00;24.30;;;;;;5100741;28;20080;-66
2021/04/14 02:26:51;;;;;;;15.07;2.78;;;25.90;24.40;;;;;;5103437;28;20151;-66
2021/04/14 02:29:17;;;;;;;18.48;2.72;;;25.80;24.70;;;;;;5096640;28;20156;-67
2021/04/14 02:31:44;;;;;;;31.85;4.13;;;25.70;25.00;;;;;;5101051;28;20072;-66
2021/04/14 02:34:13;;;;;;;11.48;2.53;;;25.60;25.30;;;;;;5103302;28;20068;-66
2021/04/14 02:36:41;;;;;;;18.33;3.08;;;25.40;25.80;;;;;;5101399;28;20130;-65
2021/04/14 02:39:12;;;;;;;30.00;3.65;;;25.20;25.90;;;;;;5103027;28;20101;-66
2021/04/14 02:41:39;;;;;;;30.45;3.22;;;25.10;26.20;;;;;;5104025;28;20151;-66
2021/04/14 02:44:06;;;;;;;28.27;3.92;;;25.10;26.20;;;;;;5102877;28;20186;-67
2021/04/14 02:46:33;;;;;;;25.90;3.63;;;25.00;26.00;;;;;;5104125;28;20088;-67
2021/04/14 02:48:59;;;;;;;31.88;3.72;;;25.00;26.40;;;;;;5104714;28;20076;-66
2021/04/14 02:51:26;;;;;;;21.00;3.53;;;25.10;26.40;;;;;;5104809;28;20071;-67
2021/04/14 02:53:53;;;;;;;19.27;3.40;;;25.00;26.30;;;;;;5102668;28;20087;-66
2021/04/14 02:56:21;;;;;;;21.65;3.53;;;25.00;26.40;;;;;;5096606;28;20069;-66
2021/04/14 02:58:47;;;;;;;19.95;3.40;;;24.90;26.60;;;;;;5098570;28;20079;-66
2021/04/14 03:01:16;;;;;;;32.58;4.30;;;24.70;27.10;;;;;;5104343;28;20417;-66
2021/04/14 03:03:42;;;;;;;23.50;3.90;;;24.50;27.20;;;;;;5082561;28;20108;-65
2021/04/14 03:06:09;;;;;;;21.65;3.72;;;24.50;27.70;;;;;;5101035;28;20155;-66
2021/04/14 03:08:35;;;;;;;18.15;3.15;;;24.50;27.80;;;;;;5101947;28;20159;-65
2021/04/14 03:11:02;;;;;;;22.80;3.45;;;24.40;27.90;;;;;;5100887;28;20122;-66
2021/04/14 03:13:29;;;;;;;27.15;3.92;;;24.30;27.80;;;;;;5101273;28;20480;-66
2021/04/14 03:15:56;;;;;;;24.58;3.72;;;24.30;28.10;;;;;;5097752;28;20134;-65
2021/04/14 03:18:22;;;;;;;28.00;3.78;;;24.30;28.00;;;;;;5100323;28;20061;-66
2021/04/14 03:20:49;;;;;;;33.95;4.18;;;24.30;28.00;;;;;;5099259;28;20077;-66
2021/04/14 03:23:17;;;;;;;35.42;4.78;;;24.20;27.90;;;;;;5088364;28;20100;-66
2021/04/14 03:25:43;;;;;;;32.55;4.60;;;24.10;28.20;;;;;;5095752;28;20106;-64
2021/04/14 03:28:12;;;;;;;43.85;3.92;;;24.00;28.40;;;;;;5095371;28;20088;-64
2021/04/14 03:30:39;;;;;;;27.23;3.75;;;24.00;28.40;;;;;;5098839;28;20088;-64
2021/04/14 03:33:06;;;;;;;34.28;4.20;;;23.90;27.70;;;;;;5098607;28;20520;-62
2021/04/14 03:35:32;;;;;;;26.45;3.80;;;23.80;27.80;;;;;;5097409;28;20260;-64
2021/04/14 03:38:00;;;;;;;48.97;4.40;;;23.70;28.20;;;;;;5095090;28;20069;-65
2021/04/14 03:40:27;;;;;;;38.40;4.13;;;23.40;28.00;;;;;;5096157;28;20068;-65
2021/04/14 03:42:55;;;;;;;45.28;4.45;;;23.40;28.60;;;;;;5095336;28;20104;-67
2021/04/14 03:45:28;;;;;;;19.80;3.17;;;23.30;28.70;;;;;;5093360;28;20532;-68
2021/04/14 03:47:55;;;;;;;26.15;3.63;;;23.20;28.90;;;;;;5094868;28;20080;-66
2021/04/14 03:50:23;;;;;;;37.30;4.10;;;23.20;29.00;;;;;;5096841;28;20075;-66
2021/04/14 03:52:50;;;;;;;26.90;3.20;;;23.20;29.20;;;;;;5097770;28;20073;-66
2021/04/14 03:55:19;;;;;;;26.00;3.97;;;23.20;29.40;;;;;;5097622;28;20088;-68
2021/04/14 03:57:46;;;;;;;28.33;4.00;;;23.20;29.50;;;;;;5098499;28;20076;-65
2021/04/14 04:00:14;;;;;;;22.83;3.28;;;23.20;29.00;;;;;;5098768;28;20589;-66
2021/04/14 04:02:41;;;;;;;26.50;3.50;;;23.10;29.00;;;;;;5101451;28;20134;-66
2021/04/14 04:05:09;;;;;;;21.90;3.20;;;23.00;28.50;;;;;;5099887;28;20072;-67
2021/04/14 04:07:36;;;;;;;22.98;3.60;;;23.00;28.90;;;;;;5081121;28;20080;-66
2021/04/14 04:10:06;;;;;;;23.15;3.55;;;22.90;29.10;;;;;;5096599;28;20539;-66
2021/04/14 04:12:33;;;;;;;24.50;3.88;;;22.90;28.50;;;;;;5094515;28;20608;-67
2021/04/14 04:15:00;;;;;;;24.17;3.22;;;22.80;28.40;;;;;;5095768;28;20134;-65
2021/04/14 04:17:26;;;;;;;24.75;3.50;;;22.60;28.70;;;;;;5098053;28;20069;-66
2021/04/14 04:19:53;;;;;;;20.90;3.40;;;22.60;28.70;;;;;;5092724;28;20100;-66
2021/04/14 04:22:20;;;;;;;23.70;3.22;;;22.60;28.80;;;;;;5095855;28;20512;-64
2021/04/14 04:24:48;;;;;;;16.15;2.45;;;22.50;29.40;;;;;;5088526;28;20151;-66
2021/04/14 04:27:16;;;;;;;15.48;3.00;;;22.50;29.10;;;;;;5098724;28;20083;-66
2021/04/14 04:29:43;;;;;;;19.40;4.15;;;22.50;29.00;;;;;;5079288;28;20444;-67
2021/04/14 04:32:09;;;;;;;11.32;2.83;;;22.40;29.20;;;;;;5076498;28;20082;-65
2021/04/14 04:34:36;;;;;;;17.33;3.20;;;22.40;29.30;;;;;;5094127;28;20139;-66
2021/04/14 04:37:03;;;;;;;22.92;3.92;;;22.30;29.40;;;;;;5096924;28;20076;-67
2021/04/14 04:39:29;;;;;;;21.55;3.22;;;22.20;31.20;;;;;;5093920;28;20164;-67
2021/04/14 04:41:56;;;;;;;10.07;3.05;;;22.20;30.00;;;;;;5102019;28;20096;-67
2021/04/14 04:44:22;;;;;;;18.05;2.80;;;22.20;29.70;;;;;;5078838;28;20198;-68
2021/04/14 04:46:49;;;;;;;16.48;2.83;;;22.30;39.60;;;;;;5093125;28;20447;-66
2021/04/14 04:49:15;;;;;;;20.15;5.18;;;22.00;29.60;;;;;;5093925;28;20080;-66
2021/04/14 04:51:42;;;;;;;11.40;3.53;;;22.20;30.20;;;;;;5093002;28;20501;-65
2021/04/14 04:54:09;;;;;;;14.98;3.58;;;22.10;30.00;;;;;;5087104;28;20084;-67
2021/04/14 04:56:35;;;;;;;17.23;4.05;;;22.00;29.90;;;;;;5081351;28;20032;-66
2021/04/14 04:59:02;;;;;;;19.88;3.90;;;22.10;30.00;;;;;;5079843;28;20073;-66
2021/04/14 05:01:28;;;;;;;14.77;3.35;;;22.10;30.10;;;;;;5092819;28;20076;-67
2021/04/14 05:03:55;;;;;;;18.52;3.95;;;22.00;30.90;;;;;;5096984;28;20552;-65
2021/04/14 05:06:21;;;;;;;18.30;3.33;;;21.90;31.40;;;;;;5090912;28;20077;-66
2021/04/14 05:08:48;;;;;;;19.30;3.75;;;21.90;30.80;;;;;;5095617;28;20064;-65
2021/04/14 05:11:15;;;;;;;16.08;3.00;;;22.00;30.70;;;;;;5094529;28;20125;-67
2021/04/14 05:13:42;;;;;;;19.33;3.92;;;21.90;30.80;;;;;;5097461;28;20103;-65
2021/04/14 05:16:08;;;;;;;19.80;3.42;;;21.80;34.50;;;;;;5093886;28;20068;-65
2021/04/14 05:18:35;;;;;;;16.05;2.83;;;21.90;31.10;;;;;;5092702;28;20559;-67
2021/04/14 05:21:03;;;;;;;18.98;3.05;;;21.80;31.20;;;;;;5075889;28;20079;-66
2021/04/14 05:23:30;;;;;;;18.85;3.40;;;21.80;31.20;;;;;;5092592;28;20106;-65
2021/04/14 05:25:57;;;;;;;15.38;2.90;;;21.80;31.30;;;;;;5096212;28;20410;-65
2021/04/14 05:28:26;;;;;;;15.02;3.47;;;21.80;31.30;;;;;;5093690;28;20146;-65
2021/04/14 05:30:53;;;;;;;18.95;3.28;;;21.70;31.30;;;;;;5094341;28;20078;-65
2021/04/14 05:33:21;;;;;;;17.15;2.47;;;21.70;31.50;;;;;;5080116;28;20025;-65
2021/04/14 05:35:47;;;;;;;18.75;3.22;;;21.70;32.10;;;;;;5072676;28;20076;-66
2021/04/14 05:38:14;;;;;;;18.65;3.30;;;21.60;32.90;;;;;;5096589;28;20065;-66
2021/04/14 05:40:41;;;;;;;18.63;2.70;;;21.40;32.80;;;;;;5094775;28;20076;-65
2021/04/14 05:43:13;;;;;;;21.85;3.25;;;21.60;33.10;;;;;;5094020;28;20568;-67
2021/04/14 05:45:40;;;;;;;22.00;2.90;;;21.50;33.50;;;;;;5092323;28;20539;-66
2021/04/14 05:48:07;;;;;;;16.23;2.92;;;21.30;33.60;;;;;;5095683;28;20060;-66
2021/04/14 05:50:33;;;;;;;20.67;2.90;;;21.30;34.20;;;;;;5096822;28;20475;-65
2021/04/14 05:53:00;;;;;;;10.23;2.53;;;21.30;39.20;;;;;;5094799;28;20111;-67
2021/04/14 05:55:26;;;;;;;17.92;3.03;;;21.10;33.90;;;;;;5088703;28;20020;-66
2021/04/14 05:57:53;;;;;;;18.00;2.95;;;21.10;34.50;;;;;;5091954;28;20594;-65
2021/04/14 06:00:20;;;;;;;15.07;3.05;;;21.00;35.10;;;;;;5090673;28;20073;-67
2021/04/14 06:02:47;;;;;;;18.33;3.17;;;20.90;35.20;;;;;;5094671;28;20618;-65
2021/04/14 06:05:17;;;;;;;15.05;3.20;;;20.80;35.80;;;;;;5076643;28;20088;-65
2021/04/14 06:07:44;;;;;;;23.00;3.42;;;20.60;36.20;;;;;;5094798;28;20076;-65
2021/04/14 06:10:12;;;;;;;25.30;3.70;;;20.60;36.60;;;;;;5093253;28;20466;-66
2021/04/14 06:12:40;;;;;;;15.93;3.20;;;20.60;36.20;;;;;;5096975;28;20139;-65
2021/04/14 06:15:13;;;;;;;24.30;3.28;;;20.70;37.00;;;;;;5086376;28;20489;-65
2021/04/14 06:17:40;;;;;;;13.10;2.90;;;20.50;36.20;;;;;;5089950;28;20609;-65
2021/04/14 06:20:09;;;;;;;15.43;2.70;;;20.40;36.50;;;;;;5091428;28;20513;-65
2021/04/14 06:22:36;;;;;;;23.02;3.70;;;20.40;36.60;;;;;;5092988;28;20200;-65
2021/04/14 06:25:05;;;;;;;26.88;3.30;;;20.40;36.90;;;;;;5095164;28;20525;-66
2021/04/14 06:27:45;;;;;;;24.55;3.80;;;20.30;36.30;;;;;;5094644;28;20073;-65
2021/04/14 06:30:12;;;;;;;18.55;3.92;;;20.30;36.50;;;;;;5094420;28;20065;-66
2021/04/14 06:32:40;;;;;;;18.77;3.00;;;20.30;36.10;;;;;;5094624;28;20080;-66
2021/04/14 06:35:08;;;;;;;20.40;3.65;;;20.40;35.70;;;;;;5094933;28;20155;-66
2021/04/14 06:37:35;;;;;;;35.80;3.58;;;20.40;36.10;;;;;;5090894;28;20466;-66
2021/04/14 06:43:16;;;;;;;21.98;3.58;;;20.50;35.80;;;;;;5092778;28;20549;-66
2021/04/14 06:45:53;;;;;;;34.53;3.28;;;20.50;35.50;;;;;;5093278;28;20580;-65
2021/04/14 06:48:47;;;;;;;19.70;3.03;;;20.50;36.00;;;;;;5095220;28;20073;-65
2021/04/14 06:51:17;;;;;;;18.95;3.60;;;;;;;;;;5094750;28;20076;-65
2021/04/14 06:53:52;;;;;;;13.00;2.38;;;20.20;33.80;;;;;;5094089;28;20163;-65
2021/04/14 06:56:21;;;;;;;22.13;3.50;;;20.30;33.40;;;;;;5091025;28;20517;-65
2021/04/14 06:59:07;;;;;;;23.23;4.03;;;20.30;33.80;;;;;;5096595;28;20159;-65
2021/04/14 07:02:09;;;;;;;15.88;2.65;;;20.30;35.10;;;;;;5093801;28;20618;-65
2021/04/14 07:04:48;;;;;;;13.68;2.78;;;20.30;34.70;;;;;;5094580;28;20082;-65
2021/04/14 07:07:20;;;;;;;13.73;2.83;;;20.20;34.50;;;;;;5094197;28;20091;-64
2021/04/14 07:09:49;;;;;;;17.63;3.20;;;20.10;34.80;;;;;;5093441;28;20121;-64
2021/04/14 07:12:20;;;;;;;13.75;2.75;;;20.00;34.60;;;;;;5094951;28;20100;-66
2021/04/14 07:14:52;;;;;;;8.63;2.78;;;20.00;34.70;;;;;;5092907;28;20150;-65
2021/04/14 07:17:22;;;;;;;8.23;2.30;;;20.10;34.60;;;;;;5074585;28;20406;-66
2021/04/14 07:19:49;;;;;;;12.05;2.90;;;20.10;34.30;;;;;;5093216;28;20088;-67
2021/04/14 07:22:50;;;;;;;16.63;2.90;;;20.10;34.30;;;;;;5093276;28;20633;-65
2021/04/14 07:25:31;;;;;;;13.65;2.83;;;20.00;34.30;;;;;;5067742;28;20573;-65
2021/04/14 07:28:26;;;;;;;15.63;2.83;;;20.10;34.20;;;;;;5089229;28;20136;-65
2021/04/14 07:31:10;;;;;;;7.85;2.33;;;20.00;34.20;;;;;;5095399;28;20082;-65
2021/04/14 07:34:30;;;;;;;14.30;2.50;;;19.90;33.60;;;;;;5091794;28;20546;-65
2021/04/14 07:37:14;;;;;;;8.00;2.53;;;19.90;34.10;;;;;;5005941;28;20074;-64
2021/04/14 07:39:55;;;;;;;9.13;2.90;;;19.80;33.90;;;;;;5087761;28;20076;-65
2021/04/14 07:42:48;;;;;;;10.82;2.50;;;19.80;33.80;;;;;;5091768;28;20093;-65
2021/04/14 07:45:27;;;;;;;14.80;3.35;;;19.80;33.80;;;;;;5091443;28;20079;-65
2021/04/14 07:48:03;;;;;;;14.05;2.78;;;19.80;34.10;;;;;;5090716;28;20125;-65
2021/04/14 07:50:38;;;;;;;14.10;2.80;;;19.80;34.30;;;;;;5094418;28;20076;-65
2021/04/14 07:53:27;;;;;;;7.00;1.73;;;19.80;33.90;;;;;;5093590;28;20507;-66
2021/04/14 07:56:10;;;;;;;10.35;2.33;;;19.80;33.10;;;;;;5095535;28;20080;-65
2021/04/14 07:58:39;;;;;;;11.40;2.30;;;19.80;33.10;;;;;;5091964;28;20471;-65
2021/04/14 08:01:14;;;;;;;15.20;2.70;;;19.80;32.90;;;;;;5093500;28;20078;-66
2021/04/14 08:03:42;;;;;;;10.25;2.25;;;19.90;32.60;;;;;;5093156;28;20101;-64
2021/04/14 08:06:11;;;;;;;9.88;2.42;;;19.80;32.60;;;;;;5092893;28;20073;-65
2021/04/14 08:08:41;;;;;;;9.02;2.22;;;19.80;32.00;;;;;;5089593;28;20073;-65
2021/04/14 08:11:15;;;;;;;9.10;2.72;;;19.90;32.60;;;;;;5093218;28;20073;-65
2021/04/14 08:13:43;;;;;;;12.13;2.53;;;19.90;33.30;;;;;;5093706;28;20114;-65
2021/04/14 08:16:41;;;;;;;11.98;2.88;;;19.90;33.20;;;;;;5095729;28;20080;-66
2021/04/14 08:19:34;;;;;;;11.70;2.55;;;19.80;33.40;;;;;;5071201;28;20085;-65
2021/04/14 08:22:16;;;;;;;11.07;2.17;;;19.80;33.40;;;;;;5091845;28;20092;-64
2021/04/14 08:24:53;;;;;;;13.30;2.80;;;19.80;33.50;;;;;;5094141;28;20101;-65
2021/04/14 08:27:32;;;;;;;30.08;4.40;;;19.70;33.50;;;;;;5094043;28;20068;-65
2021/04/14 08:30:02;;;;;;;11.95;2.33;;;19.70;33.60;;;;;;5093108;28;20069;-65
2021/04/14 08:32:33;;;;;;;9.35;2.50;;;19.60;33.10;;;;;;5093892;28;20064;-65
2021/04/14 08:35:04;;;;;;;10.35;2.42;;;19.60;32.40;;;;;;5089300;28;20151;-65
2021/04/14 08:37:32;;;;;;;18.70;2.63;;;19.60;32.10;;;;;;5094800;28;20072;-65
2021/04/14 08:40:25;;;;;;;8.30;2.13;;;19.60;32.10;;;;;;5091074;28;20209;-65
2021/04/14 08:42:52;;;;;;;14.00;2.75;;;19.60;31.60;;;;;;5075803;28;20180;-65
2021/04/14 08:45:30;;;;;;;7.78;1.95;;;19.70;31.50;;;;;;5090833;28;20072;-65
2021/04/14 08:48:21;;;;;;;16.65;2.63;;;19.70;31.60;;;;;;5072545;28;20083;-65
2021/04/14 08:50:54;;;;;;;9.00;2.30;;;19.70;31.80;;;;;;5087955;28;20072;-65
2021/04/14 08:53:31;;;;;;;11.70;2.10;;;19.60;32.00;;;;;;5092781;28;20118;-65
2021/04/14 08:55:58;;;;;;;9.32;2.33;;;19.60;32.00;;;;;;5092431;28;20064;-65
2021/04/14 08:58:25;;;;;;;14.48;2.67;;;19.60;31.60;;;;;;5094068;28;20092;-65
2021/04/14 09:00:53;;;;;;;16.00;2.22;;;19.60;31.50;;;;;;5088415;28;20107;-65
2021/04/14 09:03:23;;;;;;;9.55;2.28;;;19.60;31.40;;;;;;5093283;28;20176;-65
2021/04/14 09:05:50;;;;;;;10.63;2.25;;;19.60;31.50;;;;;;5090857;28;20076;-65
2021/04/14 09:08:20;;;;;;;10.18;2.28;;;19.50;31.60;;;;;;5092038;28;20068;-65
2021/04/14 09:10:54;;;;;;;10.30;2.22;;;19.50;31.60;;;;;;5089001;28;20069;-65
2021/04/14 09:13:54;;;;;;;11.32;2.60;;;19.50;31.70;;;;;;5092958;28;20215;-65
2021/04/14 09:16:47;;;;;;;10.82;2.17;;;19.60;31.70;;;;;;5079207;28;20076;-65
2021/04/14 09:19:42;;;;;;;11.05;2.20;;;19.50;31.80;;;;;;5087489;28;20160;-65
2021/04/14 09:22:17;;;;;;;10.77;2.08;;;19.50;32.20;;;;;;5082875;28;20108;-65
2021/04/14 09:25:10;;;;;;;11.15;2.50;;;19.50;32.00;;;;;;5093325;28;20118;-65
2021/04/14 09:27:39;;;;;;;10.55;2.03;;;19.50;32.10;;;;;;5090607;28;20084;-64
2021/04/14 09:30:30;;;;;;;15.75;2.95;;;19.50;31.70;;;;;;5091512;28;20071;-64
2021/04/14 09:33:06;;;;;;;12.65;2.42;;;19.40;31.70;;;;;;5086583;28;20096;-64
2021/04/14 09:35:32;;;;;;;16.13;2.40;;;19.40;31.80;;;;;;5092071;28;20083;-64
2021/04/14 09:38:08;;;;;;;;;;;19.40;32.90;;;;;;5091302;28;20079;-64
2021/04/14 09:40:36;;;;;;;11.40;2.33;;;19.40;33.40;;;;;;5094463;28;19956;-64
2021/04/14 09:43:27;;;;;;;9.63;2.30;;;19.40;32.90;;;;;;5089942;28;20584;-64
2021/04/14 09:46:01;;;;;;;16.83;2.20;;;19.30;32.70;;;;;;5088713;28;20521;-64
2021/04/14 09:48:47;;;;;;;9.90;2.22;;;19.10;32.80;;;;;;5093129;28;20082;-64
2021/04/14 09:51:32;;;;;;;16.20;2.40;;;19.00;34.00;;;;;;5090510;28;20515;-64
2021/04/14 09:54:11;;;;;;;10.15;2.50;;;19.00;34.60;;;;;;5093963;28;20142;-64
2021/04/14 09:56:49;;;;;;;10.52;2.63;;;18.90;34.30;;;;;;5090892;28;20080;-65
2021/04/14 09:59:18;;;;;;;10.23;2.75;;;18.90;33.80;;;;;;5096187;28;20107;-65
2021/04/14 10:01:46;;;;;;;23.52;4.25;;;18.90;34.30;;;;;;5091380;28;20068;-65
2021/04/14 10:04:25;;;;;;;34.67;5.18;;;18.80;35.20;;;;;;5094284;28;20076;-65
2021/04/14 10:06:57;;;;;;;31.00;6.35;;;18.70;36.40;;;;;;5095189;28;20092;-65
2021/04/14 10:09:33;;;;;;;29.10;5.90;;;18.70;37.50;;;;;;5092823;28;20073;-64
2021/04/14 10:12:27;;;;;;;35.35;5.78;;;18.50;37.70;;;;;;5092063;28;20104;-64
2021/04/14 10:14:57;;;;;;;28.52;6.47;;;18.50;38.90;;;;;;5094825;28;20068;-64
2021/04/14 10:17:27;;;;;;;38.03;7.70;;;18.50;39.00;;;;;;5078694;28;20076;-65
2021/04/14 10:20:00;;;;;;;50.90;8.40;;;18.30;39.00;;;;;;5092379;28;20139;-63
2021/04/14 10:22:33;;;;;;;71.97;22.80;;;18.30;40.50;;;;;;5094452;28;20124;-64
2021/04/14 10:25:04;;;;;;;75.60;23.67;;;18.30;41.30;;;;;;5094404;28;20079;-63
2021/04/14 10:27:32;;;;;;;56.78;18.42;;;18.10;41.50;;;;;;5093435;28;20072;-63
2021/04/14 10:30:01;;;;;;;57.47;15.35;;;18.10;42.60;;;;;;5095261;28;20078;-64
2021/04/14 10:32:30;;;;;;;39.80;10.05;;;18.00;43.40;;;;;;5095448;28;20069;-64
2021/04/14 10:35:07;;;;;;;51.08;11.50;;;17.90;43.50;;;;;;5091214;28;20095;-63
2021/04/14 10:37:44;;;;;;;38.55;9.27;;;17.80;44.30;;;;;;5094782;28;20084;-64
2021/04/14 10:40:19;;;;;;;41.63;8.70;;;17.60;45.30;;;;;;5092217;28;20079;-64
2021/04/14 10:42:48;;;;;;;45.30;9.95;;;17.50;46.30;;;;;;5094716;28;20197;-63
2021/04/14 10:45:18;;;;;;;40.67;11.45;;;17.40;47.10;;;;;;5096603;28;20472;-64
2021/04/14 10:47:46;;;;;;;52.67;12.13;;;17.40;47.70;;;;;;5094394;28;20540;-64
2021/04/14 10:50:21;;;;;;;43.80;10.32;;;17.30;48.40;;;;;;5095005;28;20126;-64
2021/04/14 10:52:55;;;;;;;45.60;9.40;;;17.10;48.90;;;;;;5094819;28;20155;-63
2021/04/14 10:55:25;;;;;;;46.85;9.02;;;17.10;49.40;;;;;;5096522;28;20075;-64
2021/04/14 10:58:03;;;;;;;51.13;8.48;;;17.00;49.50;;;;;;5092322;28;20084;-63
2021/04/14 11:00:34;;;;;;;35.33;8.20;;;16.90;49.70;;;;;;5095000;28;20139;-64
2021/04/14 11:03:17;;;;;;;49.25;7.78;;;17.00;49.80;;;;;;5095440;28;20120;-63
2021/04/14 11:05:52;;;;;;;30.90;7.82;;;17.00;49.80;;;;;;5097269;28;20079;-64
2021/04/14 11:08:20;;;;;;;35.55;7.38;;;16.90;49.50;;;;;;5092367;28;20092;-63
2021/04/14 11:10:47;;;;;;;43.72;8.05;;;16.70;49.90;;;;;;5092958;28;20072;-63
2021/04/14 11:13:24;;;;;;;44.63;8.00;;;16.60;50.20;;;;;;5094251;28;20114;-62
2021/04/14 11:15:52;;;;;;;48.08;8.85;;;16.70;51.10;;;;;;5094283;28;20118;-63
2021/04/14 11:18:29;;;;;;;52.85;8.98;;;16.70;51.20;;;;;;5097231;28;20073;-63
2021/04/14 11:21:13;;;;;;;;;;;16.80;50.80;;;;;;5090895;28;20077;-64
2021/04/14 11:23:45;;;;;;;43.80;8.05;;;16.80;50.80;;;;;;5092194;28;19977;-64
2021/04/14 11:26:20;;;;;;;39.97;7.97;;;16.60;50.70;;;;;;5091231;28;20073;-64
2021/04/14 11:28:56;;;;;;;34.80;8.10;;;16.50;51.20;;;;;;5091639;28;20095;-64
2021/04/14 11:31:30;;;;;;;35.75;8.32;;;16.60;51.30;;;;;;5095788;28;20110;-64
2021/04/14 11:33:59;;;;;;;32.53;6.93;;;16.70;51.20;;;;;;5090707;28;20412;-64
2021/04/14 11:36:26;;;;;;;38.22;8.15;;;16.60;52.10;;;;;;5094255;28;20092;-64
2021/04/14 11:39:13;;;;;;;42.00;8.55;;;16.60;52.00;;;;;;5092445;28;20158;-64
2021/04/14 11:41:46;;;;;;;43.72;7.97;;;16.70;51.50;;;;;;5090769;28;20086;-64
2021/04/14 11:44:21;;;;;;;29.67;7.00;;;16.50;52.40;;;;;;5091566;28;20130;-63
2021/04/14 11:47:02;;;;;;;33.75;7.65;;;16.60;51.80;;;;;;5091834;28;20068;-64
2021/04/14 11:49:37;;;;;;;36.05;7.65;;;16.60;51.40;;;;;;5085952;28;20465;-64
2021/04/14 11:52:20;;;;;;;33.35;7.45;;;16.50;50.80;;;;;;5092390;28;20080;-64
2021/04/14 11:54:48;;;;;;;45.00;8.38;;;16.50;52.00;;;;;;5091370;28;20069;-64
2021/04/14 11:57:30;;;;;;;30.88;7.60;;;16.60;51.70;;;;;;5094732;28;20113;-64
2021/04/14 12:00:22;;;;;;;36.58;7.03;;;16.70;51.50;;;;;;5093873;28;20080;-62
2021/04/14 12:02:59;;;;;;;33.13;7.70;;;16.40;51.80;;;;;;5092830;28;20145;-63
2021/04/14 12:05:26;;;;;;;34.83;7.72;;;16.30;52.20;;;;;;5093557;28;20080;-64
2021/04/14 12:07:52;;;;;;;;;;;16.20;52.50;;;;;;5093333;28;20095;-65
2021/04/14 12:10:19;;;;;;;36.72;7.43;;;16.20;52.80;;;;;;5093123;28;19956;-64
2021/04/14 12:12:48;;;;;;;25.77;7.80;;;16.10;52.70;;;;;;5090567;28;20143;-64
2021/04/14 12:15:15;;;;;;;48.85;8.40;;;16.00;52.90;;;;;;5089906;28;20069;-64
2021/04/14 12:17:41;;;;;;;37.85;7.70;;;16.00;53.90;;;;;;5075553;28;20080;-64
2021/04/14 12:20:08;;;;;;;29.33;6.72;;;16.10;52.80;;;;;;5094359;28;20065;-63
2021/04/14 12:22:35;;;;;;;39.25;7.78;;;16.00;53.70;;;;;;5095992;28;20459;-63
2021/04/14 12:25:01;;;;;;;;;;;15.90;53.60;;;;;;5094453;28;20069;-64
2021/04/14 12:27:27;;;;;;;56.67;8.77;;;15.90;54.20;;;;;;5076336;28;20329;-64
2021/04/14 12:29:53;;;;;;;;;;;15.90;53.90;;;;;;5092229;28;20521;-64
2021/04/14 12:32:20;;;;;;;44.25;9.68;;;16.00;54.50;;;;;;5094717;28;20478;-64
2021/04/14 12:34:46;;;;;;;;;;;16.00;53.60;;;;;;5092577;28;20155;-63
2021/04/14 12:37:14;;;;;;;51.45;11.75;;;15.80;53.60;;;;;;5090074;28;19956;-64
2021/04/14 12:39:42;;;;;;;58.25;12.18;;;15.90;54.30;;;;;;5076909;28;20156;-64
2021/04/14 12:42:09;;;;;;;56.65;12.75;;;15.80;54.10;;;;;;5090881;28;20146;-63
2021/04/14 12:44:35;;;;;;;54.53;12.40;;;15.80;54.00;;;;;;5091138;28;20073;-63
2021/04/14 12:47:02;;;;;;;54.72;11.63;;;15.90;54.40;;;;;;5096473;28;20096;-64
2021/04/14 12:49:29;;;;;;;44.42;12.07;;;15.90;53.50;;;;;;5089458;28;20065;-63
2021/04/14 12:51:56;;;;;;;;;;;15.90;53.90;;;;;;5097711;28;20131;-64
2021/04/14 12:54:28;;;;;;;53.65;11.85;;;15.80;54.50;;;;;;5093266;28;19995;-62
2021/04/14 12:57:13;;;;;;;53.38;13.63;;;15.90;54.80;;;;;;5093159;28;20091;-64
2021/04/14 12:59:53;;;;;;;56.00;12.20;;;15.70;55.00;;;;;;5091535;28;20069;-63
2021/04/14 13:02:26;;;;;;;47.47;12.30;;;15.80;55.40;;;;;;5091452;28;20104;-64